sensor_id;sensor_type;location;lat;lon;timestamp;temperature;humidity
53645;DHT22;39547;45.554;12.068;2022-08-14T00:00:11;23.40;49.30
53645;DHT22;39547;45.554;12.068;2022-08-14T00:06:12;23.30;49.70
53645;DHT22;39547;45.554;12.068;2022-08-14T00:12:13;23.30;50.30
53645;DHT22;39547;45.554;12.068;2022-08-14T00:18:17;23.20;50.50
53645;DHT22;39547;45.554;12.068;2022-08-14T00:24:19;23.20;50.00
53645;DHT22;39547;45.554;12.068;2022-08-14T00:30:20;23.20;50.90
53645;DHT22;39547;45.554;12.068;2022-08-14T00:36:22;23.10;51.00
53645;DHT22;39547;45.554;12.068;2022-08-14T00:42:24;23.00;51.10
53645;DHT22;39547;45.554;12.068;2022-08-14T00:48:25;23.00;51.30
53645;DHT22;39547;45.554;12.068;2022-08-14T00:54:27;23.00;51.00
53645;DHT22;39547;45.554;12.068;2022-08-14T01:00:28;23.00;50.90
53645;DHT22;39547;45.554;12.068;2022-08-14T01:06:29;22.90;50.90
53645;DHT22;39547;45.554;12.068;2022-08-14T01:12:32;22.80;51.90
53645;DHT22;39547;45.554;12.068;2022-08-14T01:18:34;22.70;52.20
53645;DHT22;39547;45.554;12.068;2022-08-14T01:24:53;22.70;52.20
53645;DHT22;39547;45.554;12.068;2022-08-14T01:30:56;22.70;52.20
53645;DHT22;39547;45.554;12.068;2022-08-14T01:36:58;22.60;51.80
53645;DHT22;39547;45.554;12.068;2022-08-14T01:42:59;22.50;52.30
53645;DHT22;39547;45.554;12.068;2022-08-14T01:49:03;22.40;52.80
53645;DHT22;39547;45.554;12.068;2022-08-14T01:55:05;22.30;52.90
53645;DHT22;39547;45.554;12.068;2022-08-14T02:01:08;22.30;53.20
53645;DHT22;39547;45.554;12.068;2022-08-14T02:07:09;22.20;53.70
53645;DHT22;39547;45.554;12.068;2022-08-14T02:13:11;22.20;53.70
53645;DHT22;39547;45.554;12.068;2022-08-14T02:19:16;22.20;53.20
53645;DHT22;39547;45.554;12.068;2022-08-14T02:25:18;22.10;53.00
53645;DHT22;39547;45.554;12.068;2022-08-14T02:31:19;22.00;54.40
53645;DHT22;39547;45.554;12.068;2022-08-14T02:37:21;21.90;53.90
53645;DHT22;39547;45.554;12.068;2022-08-14T02:43:22;21.90;54.20
53645;DHT22;39547;45.554;12.068;2022-08-14T02:49:24;21.80;54.60
53645;DHT22;39547;45.554;12.068;2022-08-14T02:55:28;21.80;55.50
53645;DHT22;39547;45.554;12.068;2022-08-14T03:01:31;21.80;54.10
53645;DHT22;39547;45.554;12.068;2022-08-14T03:07:32;21.80;54.90
53645;DHT22;39547;45.554;12.068;2022-08-14T03:13:34;21.80;54.90
53645;DHT22;39547;45.554;12.068;2022-08-14T03:19:36;21.70;56.20
53645;DHT22;39547;45.554;12.068;2022-08-14T03:25:37;21.50;55.90
53645;DHT22;39547;45.554;12.068;2022-08-14T03:31:38;21.50;55.70
53645;DHT22;39547;45.554;12.068;2022-08-14T03:37:43;21.40;55.50
53645;DHT22;39547;45.554;12.068;2022-08-14T03:43:48;21.40;56.60
53645;DHT22;39547;45.554;12.068;2022-08-14T03:49:50;21.30;56.80
53645;DHT22;39547;45.554;12.068;2022-08-14T03:55:51;21.30;56.10
53645;DHT22;39547;45.554;12.068;2022-08-14T04:01:56;21.20;56.30
53645;DHT22;39547;45.554;12.068;2022-08-14T04:07:57;21.20;56.40
53645;DHT22;39547;45.554;12.068;2022-08-14T04:13:58;21.10;57.00
53645;DHT22;39547;45.554;12.068;2022-08-14T04:20:01;21.00;56.70
53645;DHT22;39547;45.554;12.068;2022-08-14T04:26:05;21.00;57.10
53645;DHT22;39547;45.554;12.068;2022-08-14T04:32:07;20.90;57.60
53645;DHT22;39547;45.554;12.068;2022-08-14T04:38:09;20.80;58.60
53645;DHT22;39547;45.554;12.068;2022-08-14T04:44:29;20.80;59.20
53645;DHT22;39547;45.554;12.068;2022-08-14T04:50:30;20.80;58.80
53645;DHT22;39547;45.554;12.068;2022-08-14T04:56:32;20.80;58.30
53645;DHT22;39547;45.554;12.068;2022-08-14T05:02:33;20.90;57.90
53645;DHT22;39547;45.554;12.068;2022-08-14T05:08:35;20.90;57.80
53645;DHT22;39547;45.554;12.068;2022-08-14T05:14:37;21.00;58.20
53645;DHT22;39547;45.554;12.068;2022-08-14T05:20:38;21.10;58.40
53645;DHT22;39547;45.554;12.068;2022-08-14T05:26:40;21.30;58.50
53645;DHT22;39547;45.554;12.068;2022-08-14T05:32:44;21.30;58.60
53645;DHT22;39547;45.554;12.068;2022-08-14T05:38:45;21.30;59.10
53645;DHT22;39547;45.554;12.068;2022-08-14T05:44:47;21.30;59.30
53645;DHT22;39547;45.554;12.068;2022-08-14T05:50:48;21.40;59.40
53645;DHT22;39547;45.554;12.068;2022-08-14T05:56:49;21.60;58.90
53645;DHT22;39547;45.554;12.068;2022-08-14T06:02:51;21.70;58.70
53645;DHT22;39547;45.554;12.068;2022-08-14T06:08:52;21.80;58.70
53645;DHT22;39547;45.554;12.068;2022-08-14T06:14:54;22.10;59.20
53645;DHT22;39547;45.554;12.068;2022-08-14T06:20:55;22.20;59.60
53645;DHT22;39547;45.554;12.068;2022-08-14T06:26:57;22.30;60.00
53645;DHT22;39547;45.554;12.068;2022-08-14T06:32:58;22.50;60.10
53645;DHT22;39547;45.554;12.068;2022-08-14T06:38:59;22.70;59.70
53645;DHT22;39547;45.554;12.068;2022-08-14T06:45:01;22.90;59.40
53645;DHT22;39547;45.554;12.068;2022-08-14T06:51:02;23.00;59.30
53645;DHT22;39547;45.554;12.068;2022-08-14T06:57:03;23.10;58.90
53645;DHT22;39547;45.554;12.068;2022-08-14T07:03:05;23.30;58.00
53645;DHT22;39547;45.554;12.068;2022-08-14T07:09:26;23.60;57.50
53645;DHT22;39547;45.554;12.068;2022-08-14T07:15:27;23.70;56.80
53645;DHT22;39547;45.554;12.068;2022-08-14T07:21:28;23.80;56.50
53645;DHT22;39547;45.554;12.068;2022-08-14T07:27:30;24.00;56.30
53645;DHT22;39547;45.554;12.068;2022-08-14T07:33:34;24.30;55.10
53645;DHT22;39547;45.554;12.068;2022-08-14T07:39:36;24.50;54.20
53645;DHT22;39547;45.554;12.068;2022-08-14T07:45:38;24.80;53.80
53645;DHT22;39547;45.554;12.068;2022-08-14T07:51:40;25.10;53.30
53645;DHT22;39547;45.554;12.068;2022-08-14T07:57:45;25.30;52.70
53645;DHT22;39547;45.554;12.068;2022-08-14T08:03:46;25.60;51.50
53645;DHT22;39547;45.554;12.068;2022-08-14T08:09:51;25.70;49.80
53645;DHT22;39547;45.554;12.068;2022-08-14T08:15:54;25.80;49.70
53645;DHT22;39547;45.554;12.068;2022-08-14T08:21:57;26.00;49.90
53645;DHT22;39547;45.554;12.068;2022-08-14T08:33:59;26.60;44.60
53645;DHT22;39547;45.554;12.068;2022-08-14T08:40:04;26.80;45.60
53645;DHT22;39547;45.554;12.068;2022-08-14T08:46:07;27.10;44.60
53645;DHT22;39547;45.554;12.068;2022-08-14T08:52:11;27.30;42.90
53645;DHT22;39547;45.554;12.068;2022-08-14T08:58:14;27.50;44.00
53645;DHT22;39547;45.554;12.068;2022-08-14T09:04:16;27.80;43.90
53645;DHT22;39547;45.554;12.068;2022-08-14T09:10:17;28.00;43.20
53645;DHT22;39547;45.554;12.068;2022-08-14T09:16:20;28.20;43.20
53645;DHT22;39547;45.554;12.068;2022-08-14T09:22:22;28.40;41.90
53645;DHT22;39547;45.554;12.068;2022-08-14T09:28:23;28.60;40.40
53645;DHT22;39547;45.554;12.068;2022-08-14T09:40:46;29.00;39.10
53645;DHT22;39547;45.554;12.068;2022-08-14T09:46:51;29.20;38.50
53645;DHT22;39547;45.554;12.068;2022-08-14T09:52:54;29.50;38.10
53645;DHT22;39547;45.554;12.068;2022-08-14T09:58:56;29.70;38.50
53645;DHT22;39547;45.554;12.068;2022-08-14T10:11:00;30.10;35.20
53645;DHT22;39547;45.554;12.068;2022-08-14T10:17:01;30.30;35.10
53645;DHT22;39547;45.554;12.068;2022-08-14T10:23:24;30.60;35.90
53645;DHT22;39547;45.554;12.068;2022-08-14T10:29:34;30.80;35.30
53645;DHT22;39547;45.554;12.068;2022-08-14T10:35:40;31.00;34.30
53645;DHT22;39547;45.554;12.068;2022-08-14T10:41:42;31.30;33.70
53645;DHT22;39547;45.554;12.068;2022-08-14T10:47:43;31.40;32.40
53645;DHT22;39547;45.554;12.068;2022-08-14T10:53:52;31.70;31.80
53645;DHT22;39547;45.554;12.068;2022-08-14T10:59:58;31.90;31.90
53645;DHT22;39547;45.554;12.068;2022-08-14T11:06:09;32.10;31.50
53645;DHT22;39547;45.554;12.068;2022-08-14T11:12:14;32.20;31.10
53645;DHT22;39547;45.554;12.068;2022-08-14T11:18:16;32.30;30.40
53645;DHT22;39547;45.554;12.068;2022-08-14T11:24:18;32.40;30.10
53645;DHT22;39547;45.554;12.068;2022-08-14T11:30:22;32.60;29.70
53645;DHT22;39547;45.554;12.068;2022-08-14T11:36:24;32.90;29.40
53645;DHT22;39547;45.554;12.068;2022-08-14T11:42:28;33.10;29.30
53645;DHT22;39547;45.554;12.068;2022-08-14T11:48:30;33.30;29.20
53645;DHT22;39547;45.554;12.068;2022-08-14T11:54:31;33.20;28.20
53645;DHT22;39547;45.554;12.068;2022-08-14T12:00:44;33.20;28.40
53645;DHT22;39547;45.554;12.068;2022-08-14T12:06:49;33.40;28.00
53645;DHT22;39547;45.554;12.068;2022-08-14T12:12:52;34.00;26.40
53645;DHT22;39547;45.554;12.068;2022-08-14T12:18:56;34.90;27.30
53645;DHT22;39547;45.554;12.068;2022-08-14T12:24:58;35.80;27.30
53645;DHT22;39547;45.554;12.068;2022-08-14T12:31:10;36.30;26.10
53645;DHT22;39547;45.554;12.068;2022-08-14T12:37:12;36.90;26.20
53645;DHT22;39547;45.554;12.068;2022-08-14T12:43:13;37.60;25.20
53645;DHT22;39547;45.554;12.068;2022-08-14T12:49:19;37.80;25.30
53645;DHT22;39547;45.554;12.068;2022-08-14T12:55:22;38.00;24.20
53645;DHT22;39547;45.554;12.068;2022-08-14T13:01:25;37.80;24.70
53645;DHT22;39547;45.554;12.068;2022-08-14T13:07:27;38.20;23.50
53645;DHT22;39547;45.554;12.068;2022-08-14T13:13:28;38.70;23.20
53645;DHT22;39547;45.554;12.068;2022-08-14T13:19:34;38.90;23.50
53645;DHT22;39547;45.554;12.068;2022-08-14T13:25:36;39.40;23.10
53645;DHT22;39547;45.554;12.068;2022-08-14T13:31:42;39.60;22.00
53645;DHT22;39547;45.554;12.068;2022-08-14T13:37:46;39.80;22.60
53645;DHT22;39547;45.554;12.068;2022-08-14T13:43:50;40.30;21.20
53645;DHT22;39547;45.554;12.068;2022-08-14T13:49:52;40.80;21.00
53645;DHT22;39547;45.554;12.068;2022-08-14T13:55:53;40.80;20.40
53645;DHT22;39547;45.554;12.068;2022-08-14T14:01:55;40.90;20.00
53645;DHT22;39547;45.554;12.068;2022-08-14T14:07:59;40.50;20.60
53645;DHT22;39547;45.554;12.068;2022-08-14T14:14:00;41.20;20.40
53645;DHT22;39547;45.554;12.068;2022-08-14T14:20:06;42.20;20.20
53645;DHT22;39547;45.554;12.068;2022-08-14T14:26:15;42.90;19.90
53645;DHT22;39547;45.554;12.068;2022-08-14T14:32:16;42.80;19.50
53645;DHT22;39547;45.554;12.068;2022-08-14T14:38:18;43.20;18.70
53645;DHT22;39547;45.554;12.068;2022-08-14T14:44:21;43.00;18.80
53645;DHT22;39547;45.554;12.068;2022-08-14T14:50:23;42.70;18.70
53645;DHT22;39547;45.554;12.068;2022-08-14T14:56:24;41.50;19.20
53645;DHT22;39547;45.554;12.068;2022-08-14T15:02:31;39.60;20.60
53645;DHT22;39547;45.554;12.068;2022-08-14T15:08:33;38.30;21.70
53645;DHT22;39547;45.554;12.068;2022-08-14T15:14:34;37.10;25.30
53645;DHT22;39547;45.554;12.068;2022-08-14T15:20:36;36.60;27.40
53645;DHT22;39547;45.554;12.068;2022-08-14T15:26:37;36.40;28.80
53645;DHT22;39547;45.554;12.068;2022-08-14T15:32:38;35.60;30.10
53645;DHT22;39547;45.554;12.068;2022-08-14T15:38:40;34.50;32.50
53645;DHT22;39547;45.554;12.068;2022-08-14T15:44:41;33.70;33.80
53645;DHT22;39547;45.554;12.068;2022-08-14T15:50:43;33.20;34.80
53645;DHT22;39547;45.554;12.068;2022-08-14T15:56:44;32.80;35.60
53645;DHT22;39547;45.554;12.068;2022-08-14T16:02:45;32.60;35.90
53645;DHT22;39547;45.554;12.068;2022-08-14T16:08:48;32.70;36.70
53645;DHT22;39547;45.554;12.068;2022-08-14T16:14:50;32.50;37.10
53645;DHT22;39547;45.554;12.068;2022-08-14T16:20:51;32.30;37.50
53645;DHT22;39547;45.554;12.068;2022-08-14T16:26:59;32.10;38.30
53645;DHT22;39547;45.554;12.068;2022-08-14T16:33:00;31.90;39.20
53645;DHT22;39547;45.554;12.068;2022-08-14T16:39:05;31.60;39.60
53645;DHT22;39547;45.554;12.068;2022-08-14T16:45:07;31.40;40.30
53645;DHT22;39547;45.554;12.068;2022-08-14T16:51:09;31.30;40.20
53645;DHT22;39547;45.554;12.068;2022-08-14T17:03:16;30.90;41.00
53645;DHT22;39547;45.554;12.068;2022-08-14T17:09:34;30.70;41.00
53645;DHT22;39547;45.554;12.068;2022-08-14T17:15:36;30.40;41.00
53645;DHT22;39547;45.554;12.068;2022-08-14T17:21:37;30.10;41.30
53645;DHT22;39547;45.554;12.068;2022-08-14T17:27:39;29.90;42.00
53645;DHT22;39547;45.554;12.068;2022-08-14T17:33:40;29.70;42.30
53645;DHT22;39547;45.554;12.068;2022-08-14T17:39:41;29.50;42.40
53645;DHT22;39547;45.554;12.068;2022-08-14T17:45:44;29.40;42.70
53645;DHT22;39547;45.554;12.068;2022-08-14T17:57:53;29.20;43.30
53645;DHT22;39547;45.554;12.068;2022-08-14T18:03:55;29.20;43.60
53645;DHT22;39547;45.554;12.068;2022-08-14T18:09:58;29.00;44.30
53645;DHT22;39547;45.554;12.068;2022-08-14T18:15:59;28.80;45.10
53645;DHT22;39547;45.554;12.068;2022-08-14T18:22:03;28.70;45.50
53645;DHT22;39547;45.554;12.068;2022-08-14T18:28:10;28.60;45.70
53645;DHT22;39547;45.554;12.068;2022-08-14T18:34:16;28.40;46.10
53645;DHT22;39547;45.554;12.068;2022-08-14T18:46:19;28.10;47.00
53645;DHT22;39547;45.554;12.068;2022-08-14T18:52:22;28.00;47.40
53645;DHT22;39547;45.554;12.068;2022-08-14T18:58:46;27.90;47.50
53645;DHT22;39547;45.554;12.068;2022-08-14T19:04:48;27.80;48.30
53645;DHT22;39547;45.554;12.068;2022-08-14T19:10:57;27.80;48.30
53645;DHT22;39547;45.554;12.068;2022-08-14T19:16:58;27.70;48.20
53645;DHT22;39547;45.554;12.068;2022-08-14T19:22:59;27.60;48.40
53645;DHT22;39547;45.554;12.068;2022-08-14T19:29:24;27.50;48.40
53645;DHT22;39547;45.554;12.068;2022-08-14T19:41:32;27.30;49.60
53645;DHT22;39547;45.554;12.068;2022-08-14T19:47:34;27.30;50.30
53645;DHT22;39547;45.554;12.068;2022-08-14T19:53:47;27.10;50.90
53645;DHT22;39547;45.554;12.068;2022-08-14T19:59:50;27.00;51.00
53645;DHT22;39547;45.554;12.068;2022-08-14T20:05:59;27.00;51.10
53645;DHT22;39547;45.554;12.068;2022-08-14T20:12:02;26.80;50.70
53645;DHT22;39547;45.554;12.068;2022-08-14T20:18:05;26.80;50.90
53645;DHT22;39547;45.554;12.068;2022-08-14T20:24:24;26.80;51.10
53645;DHT22;39547;45.554;12.068;2022-08-14T20:30:27;26.80;50.90
53645;DHT22;39547;45.554;12.068;2022-08-14T20:36:31;26.80;51.70
53645;DHT22;39547;45.554;12.068;2022-08-14T20:42:32;26.70;51.80
53645;DHT22;39547;45.554;12.068;2022-08-14T20:49:09;26.70;51.10
53645;DHT22;39547;45.554;12.068;2022-08-14T20:55:23;26.60;51.70
53645;DHT22;39547;45.554;12.068;2022-08-14T21:07:25;26.60;52.20
53645;DHT22;39547;45.554;12.068;2022-08-14T21:13:27;26.60;51.40
53645;DHT22;39547;45.554;12.068;2022-08-14T21:19:32;26.50;52.50
53645;DHT22;39547;45.554;12.068;2022-08-14T21:25:33;26.40;52.20
53645;DHT22;39547;45.554;12.068;2022-08-14T21:31:34;26.30;52.50
53645;DHT22;39547;45.554;12.068;2022-08-14T21:37:36;26.20;53.70
53645;DHT22;39547;45.554;12.068;2022-08-14T21:43:43;26.10;54.20
53645;DHT22;39547;45.554;12.068;2022-08-14T21:49:44;26.00;54.80
53645;DHT22;39547;45.554;12.068;2022-08-14T21:55:47;26.00;53.80
53645;DHT22;39547;45.554;12.068;2022-08-14T22:01:53;26.00;55.00
53645;DHT22;39547;45.554;12.068;2022-08-14T22:07:54;25.90;54.70
53645;DHT22;39547;45.554;12.068;2022-08-14T22:13:56;25.80;54.50
53645;DHT22;39547;45.554;12.068;2022-08-14T22:19:58;25.80;54.20
53645;DHT22;39547;45.554;12.068;2022-08-14T22:26:01;25.70;54.30
53645;DHT22;39547;45.554;12.068;2022-08-14T22:32:05;25.70;54.60
53645;DHT22;39547;45.554;12.068;2022-08-14T22:38:06;25.70;54.50
53645;DHT22;39547;45.554;12.068;2022-08-14T22:44:21;25.60;55.00
53645;DHT22;39547;45.554;12.068;2022-08-14T22:50:23;25.60;55.30
53645;DHT22;39547;45.554;12.068;2022-08-14T22:56:25;25.50;55.80
53645;DHT22;39547;45.554;12.068;2022-08-14T23:02:28;25.60;55.70
53645;DHT22;39547;45.554;12.068;2022-08-14T23:08:30;25.50;55.60
53645;DHT22;39547;45.554;12.068;2022-08-14T23:14:31;25.50;56.00
53645;DHT22;39547;45.554;12.068;2022-08-14T23:20:32;25.30;55.90
53645;DHT22;39547;45.554;12.068;2022-08-14T23:26:34;25.30;56.80
53645;DHT22;39547;45.554;12.068;2022-08-14T23:32:36;25.20;56.60
53645;DHT22;39547;45.554;12.068;2022-08-14T23:38:38;25.20;56.90
53645;DHT22;39547;45.554;12.068;2022-08-14T23:44:39;25.30;57.00
53645;DHT22;39547;45.554;12.068;2022-08-14T23:50:41;25.30;57.60
53645;DHT22;39547;45.554;12.068;2022-08-14T23:56:43;25.20;57.20
